Time;durP1;ratioP1;P1;durP2;ratioP2;P2;SDS_P1;SDS_P2;PMS_P1;PMS_P2;Temp;Humidity;BMP_temperature;BMP_pressure;BME280_temperature;BME280_humidity;BME280_pressure;Samples;Min_cycle;Max_cycle;Signal;HPM_P1;HPM_P2
2022/11/17 00:00:30;;;;;;;6.67;4.67;;;;;;;0.36;100.00;101610.56;4843759;29;20295;-77
2022/11/17 00:02:55;;;;;;;8.17;5.10;;;;;;;0.34;100.00;101609.78;4844809;29;20368;-77
2022/11/17 00:05:21;;;;;;;10.77;5.13;;;;;;;0.33;100.00;101589.75;4844626;29;20034;-77
2022/11/17 00:07:48;;;;;;;6.07;4.83;;;;;;;0.40;100.00;101606.84;4844415;29;20053;-77
2022/11/17 00:10:16;;;;;;;6.57;4.10;;;;;;;0.35;100.00;101593.16;4844241;29;20086;-75
2022/11/17 00:15:27;;;;;;;10.57;7.57;;;;;;;0.36;100.00;101585.19;4844483;29;20062;-75
2022/11/17 00:23:22;;;;;;;4.67;3.60;;;;;;;0.00;100.00;101540.75;4843980;29;20299;-77
2022/11/17 00:25:48;;;;;;;5.37;4.00;;;;;;;0.23;100.00;101590.19;4844848;29;20299;-74
2022/11/17 00:28:13;;;;;;;4.20;3.50;;;;;;;0.26;100.00;101595.28;4828753;29;20315;-77
2022/11/17 00:36:07;;;;;;;3.97;2.80;;;;;;;0.35;100.00;101588.75;4843525;29;20271;-75
2022/11/17 00:38:32;;;;;;;3.90;3.30;;;;;;;0.40;100.00;101576.25;4844207;29;20300;-78
2022/11/17 00:40:58;;;;;;;3.13;2.50;;;;;;;0.42;100.00;101578.81;4843993;29;20030;-74
2022/11/17 00:43:23;;;;;;;4.57;3.30;;;;;;;0.46;100.00;101577.72;4826602;29;20086;-76
2022/11/17 00:45:49;;;;;;;4.73;2.90;;;;;;;0.46;100.00;101567.22;4843156;29;20379;-77
2022/11/17 00:48:15;;;;;;;4.07;3.40;;;;;;;0.51;100.00;101567.84;4843135;29;20030;-77
2022/11/17 00:50:41;;;;;;;5.77;3.43;;;;;;;0.56;100.00;101565.81;4843340;29;20467;-76
2022/11/17 00:53:06;;;;;;;3.97;3.27;;;;;;;0.58;100.00;101561.38;4843531;29;20344;-75
2022/11/17 00:55:32;;;;;;;4.13;3.10;;;;;;;0.69;100.00;101572.16;4843791;29;20467;-75
2022/11/17 00:57:57;;;;;;;3.10;2.80;;;;;;;0.61;100.00;101542.88;4843205;29;20382;-76
2022/11/17 01:00:23;;;;;;;4.50;3.10;;;;;;;0.70;100.00;101563.34;4827229;29;20145;-75
2022/11/17 01:02:48;;;;;;;6.37;3.40;;;;;;;0.65;100.00;101544.41;4842950;29;20026;-77
2022/11/17 01:05:14;;;;;;;4.33;2.70;;;;;;;0.66;100.00;101540.84;4843367;29;20073;-75
2022/11/17 01:07:40;;;;;;;3.63;2.70;;;;;;;0.73;100.00;101560.56;4843406;29;20033;-76
2022/11/17 01:10:08;;;;;;;3.17;2.70;;;;;;;0.70;100.00;101539.75;4843330;29;20115;-77
2022/11/17 01:12:34;;;;;;;5.68;3.00;;;;;;;0.72;100.00;101539.69;4843688;29;20046;-76
2022/11/17 01:15:00;;;;;;;4.27;3.60;;;;;;;0.77;100.00;101549.00;4843342;29;20045;-76
2022/11/17 01:17:25;;;;;;;4.73;2.80;;;;;;;0.74;100.00;101546.53;4827145;29;20045;-76
2022/11/17 01:19:51;;;;;;;4.00;2.83;;;;;;;0.68;100.00;101533.75;4842744;29;20032;-75
2022/11/17 01:22:16;;;;;;;4.77;2.57;;;;;;;0.68;100.00;101527.66;4842873;29;20517;-76
2022/11/17 01:24:42;;;;;;;5.43;2.57;;;;;;;0.71;100.00;101525.72;4843669;29;20038;-77
2022/11/17 01:27:07;;;;;;;3.50;2.90;;;;;;;0.68;100.00;101518.03;4843333;29;20026;-76
2022/11/17 01:29:33;;;;;;;3.27;2.73;;;;;;;0.57;100.00;101505.47;4826759;29;20086;-75
2022/11/17 01:31:58;;;;;;;5.70;2.43;;;;;;;0.70;100.00;101521.41;4842489;29;20044;-74
2022/11/17 01:34:24;;;;;;;5.43;3.00;;;;;;;0.70;100.00;101510.91;4842457;29;20040;-75
2022/11/17 01:39:33;;;;;;;5.00;3.20;;;;;;;0.70;100.00;101515.31;4842750;29;20034;-76
2022/11/17 01:42:08;;;;;;;3.93;3.43;;;;;;;0.70;100.00;101512.69;4842715;29;20359;-77
2022/11/17 01:45:03;;;;;;;4.47;3.10;;;;;;;0.74;100.00;101507.19;4842487;29;20079;-77
2022/11/17 01:47:44;;;;;;;4.40;3.27;;;;;;;0.75;100.00;101501.03;4842635;29;20259;-76
2022/11/17 01:50:15;;;;;;;3.83;2.73;;;;;;;0.76;100.00;101505.34;4842425;29;20298;-77
2022/11/17 01:52:41;;;;;;;3.63;3.10;;;;;;;0.73;100.00;101502.88;4842365;29;20266;-77
2022/11/17 01:55:10;;;;;;;3.63;2.70;;;;;;;0.77;100.00;101499.16;4842349;29;21187;-76
2022/11/17 01:57:45;;;;;;;4.33;3.30;;;;;;;0.74;100.00;101491.47;4842353;29;20628;-77
2022/11/17 02:00:11;;;;;;;3.67;2.93;;;;;;;0.69;100.00;101483.00;4841742;29;20818;-76
2022/11/17 02:02:40;;;;;;;3.70;2.83;;;;;;;0.74;100.00;101480.97;4842244;29;20275;-77
2022/11/17 02:05:11;;;;;;;3.92;2.70;;;;;;;0.80;100.00;101478.03;4842141;29;20274;-73
2022/11/17 02:07:39;;;;;;;3.20;2.73;;;;;;;0.75;100.00;101472.19;4841820;29;20490;-75
2022/11/17 02:10:05;;;;;;;7.37;2.80;;;;;;;0.72;100.00;101477.59;4842081;29;20283;-76
2022/11/17 02:12:34;;;;;;;5.10;3.17;;;;;;;0.69;100.00;101467.28;4842322;29;20343;-76
2022/11/17 02:15:00;;;;;;;2.92;2.15;;;;;;;0.75;100.00;101477.44;4842731;29;20267;-77
2022/11/17 02:17:34;;;;;;;5.97;3.93;;;;;;;0.75;100.00;101471.34;4826376;29;20026;-75
2022/11/17 02:20:09;;;;;;;3.17;2.27;;;;;;;0.78;100.00;101472.03;4842342;29;20756;-77
2022/11/17 02:22:59;;;;;;;4.77;2.50;;;;;;;0.81;100.00;101468.38;4842318;29;20263;-76
2022/11/17 02:25:40;;;;;;;3.40;2.50;;;;;;;0.80;100.00;101470.16;4842595;29;20251;-75
2022/11/17 02:28:08;;;;;;;2.43;2.20;;;;;;;0.76;100.00;101463.41;4842514;29;20319;-75
2022/11/17 02:31:01;;;;;;;3.97;2.85;;;;;;;0.77;100.00;101459.00;4842352;29;20286;-76
2022/11/17 02:34:05;;;;;;;11.43;4.37;;;;;;;0.84;100.00;101460.34;4842739;29;20599;-77
2022/11/17 02:36:46;;;;;;;3.43;2.93;;;;;;;0.86;100.00;101459.34;4816328;29;20285;-79
2022/11/17 02:39:24;;;;;;;5.00;2.83;;;;;;;0.85;100.00;101452.41;4842117;29;20293;-77
2022/11/17 02:42:09;;;;;;;5.38;2.42;;;;;;;0.85;100.00;101469.91;4844804;29;20290;-76
2022/11/17 02:44:51;;;;;;;5.07;2.60;;;;;;;0.82;100.00;101463.06;4846614;29;20038;-77
2022/11/17 02:47:22;;;;;;;3.20;2.57;;;;;;;0.60;100.00;101431.94;4847835;29;20255;-78
2022/11/17 02:50:00;;;;;;;4.47;2.53;;;;;;;0.68;100.00;101449.88;4850210;29;20358;-75
2022/11/17 02:52:28;;;;;;;3.25;2.10;;;;;;;0.79;100.00;101465.84;4854716;29;20270;-77
2022/11/17 02:55:01;;;;;;;3.47;2.77;;;;;;;0.79;100.00;101467.63;4855630;29;20072;-74
2022/11/17 02:57:30;;;;;;;2.73;2.50;;;;;;;0.70;100.00;101463.72;4853054;29;20369;-77
2022/11/17 02:59:59;;;;;;;3.23;2.37;;;;;;;0.75;100.00;101459.09;4847996;29;20267;-77
2022/11/17 03:02:58;;;;;;;5.30;3.00;;;;;;;0.84;100.00;101470.84;4845962;29;20294;-74
2022/11/17 03:05:29;;;;;;;;;;;;;;;0.91;100.00;101472.22;4846225;29;20691;-76
2022/11/17 03:08:19;;;;;;;4.03;2.10;;;;;;;0.65;100.00;101434.31;4832245;29;19913;-75
2022/11/17 03:11:02;;;;;;;3.17;2.83;;;;;;;0.87;100.00;101466.31;4849785;29;20282;-75
2022/11/17 03:13:43;;;;;;;4.60;3.30;;;;;;;0.86;100.00;101459.34;4850007;29;20359;-76
2022/11/17 03:16:08;;;;;;;3.87;2.50;;;;;;;0.86;100.00;101459.34;4853480;29;20296;-75
2022/11/17 03:18:48;;;;;;;3.57;2.43;;;;;;;0.90;100.00;101452.19;4851274;29;20267;-75
2022/11/17 03:21:40;;;;;;;5.03;2.60;;;;;;;0.97;100.00;101450.06;4855179;29;20462;-75
2022/11/17 03:24:52;;;;;;;2.97;2.57;;;;;;;0.96;100.00;101446.59;4846933;29;20271;-75
2022/11/17 03:46:23;;;;;;;2.63;2.40;;;;;;;0.82;100.00;101436.00;4806436;29;20283;-76
2022/11/17 03:48:52;;;;;;;3.33;3.03;;;;;;;0.49;100.00;101383.63;4805460;29;20662;-74
2022/11/17 03:51:24;;;;;;;3.42;2.75;;;;;;;0.77;100.00;101428.38;4820593;29;20271;-75
2022/11/17 03:53:51;;;;;;;6.30;3.30;;;;;;;0.79;100.00;101426.50;4843520;29;20068;-76
2022/11/17 03:56:41;;;;;;;25.47;4.60;;;;;;;0.81;100.00;101427.28;4845636;29;20795;-77
2022/11/17 03:59:17;;;;;;;5.77;3.20;;;;;;;0.79;100.00;101426.50;4847577;29;20269;-78
2022/11/17 04:01:42;;;;;;;6.10;3.40;;;;;;;0.79;100.00;101431.75;4845862;29;20298;-75
2022/11/17 04:04:19;;;;;;;3.73;3.03;;;;;;;0.77;100.00;101427.53;4847029;29;20331;-69
2022/11/17 04:06:45;;;;;;;5.97;3.50;;;;;;;0.77;100.00;101422.28;4840248;29;20034;-69
2022/11/17 04:16:11;;;;;;;4.10;3.67;;;;;;;0.56;100.00;101382.34;4848445;29;20279;-75
2022/11/17 04:19:01;;;;;;;4.63;3.10;;;;;;;0.77;100.00;101420.50;4852135;29;20749;-75
2022/11/17 04:21:57;;;;;;;4.40;3.30;;;;;;;0.77;100.00;101417.91;4823559;29;20330;-75
2022/11/17 04:24:28;;;;;;;6.87;3.70;;;;;;;0.72;100.00;101398.09;4837919;29;20274;-73
2022/11/17 04:29:38;;;;;;;3.53;3.23;;;;;;;0.75;100.00;101397.94;4832317;29;20051;-73
2022/11/17 04:33:16;;;;;;;3.23;2.93;;;;;;;0.56;100.00;101366.63;4841192;29;20267;-77
2022/11/17 04:35:47;;;;;;;;;;;;;;;0.82;100.00;101426.34;4758174;30;20154;-73
2022/11/17 04:38:14;;;;;;;5.50;3.17;;;;;;;0.78;100.00;101413.50;4751128;30;19913;-73
2022/11/17 04:41:52;;;;;;;4.33;3.93;;;;;;;0.75;100.00;101414.50;4804033;29;20323;-72
2022/11/17 04:43:25;;;;;;;4.00;3.17;;;;;;;0.70;100.00;101408.69;4822905;29;20327;-71
2022/11/17 04:45:50;;;;;;;4.33;3.90;;;;;;;0.70;100.00;101406.06;4823187;29;20272;-74
2022/11/17 04:48:16;;;;;;;4.83;3.23;;;;;;;0.67;100.00;101394.91;4807826;29;20411;-73
2022/11/17 04:50:41;;;;;;;4.33;3.43;;;;;;;0.74;100.00;101404.09;4823015;29;20050;-73
2022/11/17 04:53:07;;;;;;;4.23;3.67;;;;;;;0.71;100.00;101402.50;4823049;29;20062;-74
2022/11/17 04:55:32;;;;;;;5.90;3.90;;;;;;;0.70;100.00;101413.91;4824156;29;20045;-74
2022/11/17 04:57:58;;;;;;;6.70;3.70;;;;;;;0.67;100.00;101405.38;4825147;29;20045;-76
2022/11/17 05:00:24;;;;;;;6.97;3.47;;;;;;;0.59;100.00;101392.69;4824506;29;20094;-76
2022/11/17 05:02:50;;;;;;;6.33;3.97;;;;;;;0.69;100.00;101398.28;4824703;29;20263;-76
2022/11/17 05:05:16;;;;;;;8.63;4.83;;;;;;;0.71;100.00;101406.91;4823525;29;20086;-77
2022/11/17 05:07:41;;;;;;;7.57;4.10;;;;;;;0.75;100.00;101397.94;4825507;29;20170;-76
2022/11/17 05:10:11;;;;;;;5.57;4.00;;;;;;;0.78;100.00;101398.59;4825302;29;20110;-77
2022/11/17 05:18:15;;;;;;;8.40;5.73;;;;;;;0.82;100.00;101402.75;4822179;29;20276;-77
2022/11/17 05:20:40;;;;;;;6.30;4.23;;;;;;;0.83;100.00;101407.06;4833129;29;20302;-77
2022/11/17 05:25:52;;;;;;;5.33;4.20;;;;;;;0.84;100.00;101406.13;4832537;29;20120;-77
2022/11/17 05:28:17;;;;;;;6.15;3.67;;;;;;;0.80;100.00;101406.38;4836322;29;20267;-75
2022/11/17 05:30:43;;;;;;;4.43;3.90;;;;;;;0.78;100.00;101401.22;4834245;29;20029;-75
2022/11/17 05:33:09;;;;;;;6.53;4.23;;;;;;;0.74;100.00;101411.97;4824787;29;20348;-76
2022/11/17 05:35:34;;;;;;;4.90;3.63;;;;;;;0.77;100.00;101415.28;4836677;29;20383;-77
2022/11/17 05:37:59;;;;;;;4.90;4.23;;;;;;;0.72;100.00;101404.19;4831698;29;20474;-78
2022/11/17 05:40:27;;;;;;;6.47;4.43;;;;;;;0.81;100.00;101408.91;4837678;29;20512;-76
2022/11/17 05:42:53;;;;;;;7.47;4.70;;;;;;;0.84;100.00;101418.41;4826238;29;20087;-76
2022/11/17 05:45:18;;;;;;;5.17;3.90;;;;;;;0.85;100.00;101418.31;4842874;29;20266;-78
2022/11/17 05:47:44;;;;;;;8.20;4.80;;;;;;;0.75;100.00;101414.50;4826722;29;20487;-75
2022/11/17 05:50:09;;;;;;;8.70;4.20;;;;;;;0.82;100.00;101434.22;4843477;29;20042;-78
2022/11/17 05:52:35;;;;;;;6.53;3.67;;;;;;;0.80;100.00;101438.69;4827218;29;20128;-76
2022/11/17 05:55:00;;;;;;;8.47;4.30;;;;;;;0.76;100.00;101431.94;4843221;29;20053;-77
2022/11/17 05:57:30;;;;;;;5.23;3.73;;;;;;;0.72;100.00;101437.44;4843064;29;20038;-79
2022/11/17 06:00:03;;;;;;;4.90;3.67;;;;;;;0.68;100.00;101428.88;4842290;29;20033;-79
2022/11/17 06:03:25;;;;;;;6.88;3.90;;;;;;;0.67;100.00;101432.44;4842375;29;20282;-76
2022/11/17 06:05:52;;;;;;;3.30;3.00;;;;;;;0.65;100.00;101418.56;4842295;29;20048;-76
2022/11/17 06:08:18;;;;;;;4.93;3.43;;;;;;;0.64;100.00;101419.50;4841394;29;20271;-76
2022/11/17 06:10:46;;;;;;;4.33;3.53;;;;;;;0.74;100.00;101428.56;4825809;29;20295;-76
2022/11/17 06:13:11;;;;;;;4.87;3.30;;;;;;;0.72;100.00;101429.56;4843787;29;20281;-76
2022/11/17 06:15:38;;;;;;;3.97;3.53;;;;;;;0.76;100.00;101434.56;4841131;29;20291;-75
2022/11/17 06:18:07;;;;;;;5.00;3.67;;;;;;;0.70;100.00;101415.69;4842089;29;20071;-76
2022/11/17 06:20:37;;;;;;;5.53;3.60;;;;;;;0.81;100.00;101429.91;4825637;29;20289;-76
2022/11/17 06:23:06;;;;;;;5.13;2.80;;;;;;;0.86;100.00;101427.03;4842901;29;20298;-75
2022/11/17 06:25:34;;;;;;;4.53;2.85;;;;;;;0.80;100.00;101407.22;4842932;29;20299;-76
2022/11/17 06:28:03;;;;;;;4.67;2.77;;;;;;;0.98;100.00;101434.22;4842266;29;20066;-76
2022/11/17 06:30:28;;;;;;;;;;;;;;;1.02;100.00;101421.78;4843840;29;20327;-77
2022/11/17 06:32:55;;;;;;;4.40;2.17;;;;;;;1.04;100.00;101433.88;4842962;29;19913;-76
2022/11/17 06:35:22;;;;;;;4.07;2.50;;;;;;;1.00;100.00;101418.41;4842387;29;20042;-75
2022/11/17 06:37:50;;;;;;;3.97;2.80;;;;;;;1.03;100.00;101434.81;4842009;29;20266;-78
2022/11/17 06:40:16;;;;;;;3.03;2.58;;;;;;;0.87;100.00;101434.84;4841786;29;20759;-76
2022/11/17 06:45:26;;;;;;;6.23;3.87;;;;;;;0.67;100.00;101413.25;4841435;29;20034;-75
2022/11/17 06:47:52;;;;;;;8.90;4.03;;;;;;;0.70;100.00;101427.03;4841977;29;20259;-76
2022/11/17 06:50:18;;;;;;;7.33;4.37;;;;;;;0.75;100.00;101434.63;4841419;29;20086;-76
2022/11/17 06:52:44;;;;;;;9.33;4.60;;;;;;;0.71;100.00;101428.72;4841978;29;20263;-76
2022/11/17 06:55:10;;;;;;;6.97;5.10;;;;;;;0.86;100.00;101435.72;4825365;29;20274;-75
2022/11/17 06:57:36;;;;;;;8.03;5.73;;;;;;;0.92;100.00;101429.34;4842122;29;20034;-74
2022/11/17 07:00:04;;;;;;;8.27;4.67;;;;;;;0.85;100.00;101426.19;4841638;29;20061;-77
2022/11/17 07:02:31;;;;;;;5.93;3.57;;;;;;;0.86;100.00;101438.34;4842002;29;20065;-77
2022/11/17 07:05:00;;;;;;;;;;;;;;;0.94;100.00;101430.09;4842058;29;20851;-78
2022/11/17 07:07:25;;;;;;;6.07;3.20;;;;;;;0.97;100.00;101435.16;4842121;29;19912;-76
2022/11/17 07:09:52;;;;;;;6.73;3.23;;;;;;;1.01;100.00;101438.47;4842722;29;20049;-76
2022/11/17 07:12:17;;;;;;;5.47;3.37;;;;;;;1.12;100.00;101438.69;4841138;29;20041;-76
2022/11/17 07:14:43;;;;;;;6.03;3.37;;;;;;;1.15;100.00;101428.03;4843216;29;20621;-76
2022/11/17 07:17:09;;;;;;;7.07;3.10;;;;;;;1.01;100.00;101422.72;4842536;29;20038;-75
2022/11/17 07:19:34;;;;;;;8.90;2.93;;;;;;;0.99;100.00;101428.06;4844346;29;20026;-79
2022/11/17 07:22:00;;;;;;;3.30;3.00;;;;;;;1.00;100.00;101439.41;4843181;29;20545;-76
2022/11/17 07:24:25;;;;;;;6.70;2.60;;;;;;;1.00;100.00;101453.34;4843111;29;20026;-76
2022/11/17 07:26:51;;;;;;;2.97;2.60;;;;;;;0.80;100.00;101427.38;4844376;29;20094;-75
2022/11/17 07:29:16;;;;;;;7.37;2.73;;;;;;;1.05;100.00;101453.09;4844974;29;20049;-75
2022/11/17 07:31:42;;;;;;;3.10;2.80;;;;;;;1.09;100.00;101454.63;4844772;29;20163;-75
2022/11/17 07:34:08;;;;;;;6.50;2.83;;;;;;;1.03;100.00;101433.97;4844591;29;20129;-76
2022/11/17 07:36:33;;;;;;;2.43;2.03;;;;;;;1.08;100.00;101437.19;4844869;29;20026;-76
2022/11/17 07:38:58;;;;;;;2.77;2.10;;;;;;;1.08;100.00;101452.91;4844888;29;20038;-77
2022/11/17 07:41:24;;;;;;;2.50;2.30;;;;;;;0.97;100.00;101447.44;4845542;29;20539;-78
2022/11/17 07:43:59;;;;;;;2.67;2.27;;;;;;;0.74;100.00;101427.72;4845716;29;20127;-75
2022/11/17 07:46:25;;;;;;;3.93;2.33;;;;;;;0.78;100.00;101439.72;4846146;29;20038;-75
2022/11/17 07:48:54;;;;;;;4.30;2.53;;;;;;;0.47;100.00;101404.66;4829479;29;20323;-76
2022/11/17 07:51:22;;;;;;;5.10;2.53;;;;;;;0.77;100.00;101446.72;4846189;29;20065;-77
2022/11/17 07:53:47;;;;;;;4.70;2.67;;;;;;;0.92;100.00;101463.44;4845871;29;20263;-76
2022/11/17 07:56:13;;;;;;;3.17;2.70;;;;;;;0.96;100.00;101470.19;4845330;29;20149;-77
2022/11/17 07:58:39;;;;;;;5.20;2.03;;;;;;;0.91;100.00;101465.19;4850819;29;20029;-75
2022/11/17 08:01:15;;;;;;;3.87;2.77;;;;;;;0.89;100.00;101467.06;4855857;29;20042;-75
2022/11/17 08:03:44;;;;;;;5.33;2.53;;;;;;;0.78;100.00;101472.03;4856891;29;20331;-76
2022/11/17 08:06:12;;;;;;;4.03;2.20;;;;;;;0.72;100.00;101474.97;4855231;29;20339;-76
2022/11/17 08:08:38;;;;;;;2.40;2.20;;;;;;;0.82;100.00;101473.53;4851661;29;20279;-78
2022/11/17 08:11:10;;;;;;;3.30;2.50;;;;;;;0.99;100.00;101479.66;4845143;29;20057;-77
2022/11/17 08:13:37;;;;;;;4.53;2.53;;;;;;;1.06;100.00;101481.00;4844566;29;20038;-75
2022/11/17 08:16:03;;;;;;;3.10;2.80;;;;;;;1.03;100.00;101491.69;4845277;29;20267;-75
2022/11/17 08:18:29;;;;;;;3.17;2.57;;;;;;;1.08;100.00;101489.66;4844668;29;20269;-76
2022/11/17 08:21:14;;;;;;;4.33;3.43;;;;;;;0.92;100.00;101490.50;4844837;29;20042;-76
2022/11/17 08:23:41;;;;;;;6.30;3.20;;;;;;;0.80;100.00;101491.13;4828285;29;20411;-75
2022/11/17 08:26:09;;;;;;;5.00;3.17;;;;;;;0.65;100.00;101491.97;4844769;29;20592;-76
2022/11/17 08:28:35;;;;;;;3.20;2.90;;;;;;;0.68;100.00;101486.56;4843900;29;20259;-75
2022/11/17 08:31:02;;;;;;;3.77;3.30;;;;;;;0.73;100.00;101483.69;4843714;29;20354;-75
2022/11/17 08:33:28;;;;;;;3.80;2.77;;;;;;;0.74;100.00;101469.66;4844667;29;20281;-76
2022/11/17 08:35:57;;;;;;;4.63;3.40;;;;;;;0.87;100.00;101471.53;4844489;29;20271;-76
2022/11/17 08:38:27;;;;;;;3.97;2.83;;;;;;;1.01;100.00;101477.81;4843678;29;20058;-77
2022/11/17 08:41:04;;;;;;;5.03;3.30;;;;;;;1.13;100.00;101482.38;4844344;29;20294;-76
2022/11/17 08:43:29;;;;;;;4.67;3.10;;;;;;;1.11;100.00;101479.81;4843954;29;20334;-74
2022/11/17 08:45:57;;;;;;;6.27;3.03;;;;;;;1.24;100.00;101474.75;4827320;29;20763;-77
2022/11/17 08:48:24;;;;;;;6.28;4.07;;;;;;;1.19;100.00;101455.81;4843922;29;20102;-76
2022/11/17 08:50:50;;;;;;;4.73;3.10;;;;;;;1.39;100.00;101478.28;4843632;29;20037;-75
2022/11/17 08:53:18;;;;;;;6.33;3.10;;;;;;;1.48;100.00;101488.28;4826943;29;20271;-76
2022/11/17 08:55:46;;;;;;;3.93;2.50;;;;;;;1.48;100.00;101477.78;4843177;29;20056;-76
2022/11/17 08:58:19;;;;;;;3.03;1.70;;;;;;;1.46;100.00;101483.13;4843827;29;20496;-76
2022/11/17 09:00:47;;;;;;;2.22;1.73;;;;;;;1.51;100.00;101494.22;4843382;29;20294;-75
2022/11/17 09:03:13;;;;;;;3.58;2.10;;;;;;;1.40;100.00;101464.22;4843079;29;20034;-77
2022/11/17 09:05:40;;;;;;;3.53;2.10;;;;;;;1.50;100.00;101471.53;4843303;29;20072;-77
2022/11/17 09:08:07;;;;;;;2.17;1.95;;;;;;;1.54;100.00;101467.78;4844322;29;20044;-76
2022/11/17 09:10:36;;;;;;;5.13;2.60;;;;;;;1.63;100.00;101476.91;4843752;29;20061;-76
2022/11/17 09:13:02;;;;;;;2.57;2.17;;;;;;;1.66;99.23;101496.88;4842770;29;20306;-77
2022/11/17 09:15:28;;;;;;;2.50;1.93;;;;;;;1.29;98.51;101477.13;4842651;29;20324;-76
2022/11/17 09:17:54;;;;;;;4.87;2.97;;;;;;;1.30;99.99;101490.16;4842257;29;20029;-78
2022/11/17 09:20:20;;;;;;;2.13;1.80;;;;;;;1.33;99.98;101490.00;4842350;29;20037;-77
2022/11/17 09:22:45;;;;;;;3.57;2.00;;;;;;;1.32;100.00;101480.41;4842695;29;20277;-77
2022/11/17 09:25:12;;;;;;;2.70;2.40;;;;;;;1.23;99.37;101492.28;4826562;29;20033;-76
2022/11/17 09:27:38;;;;;;;3.33;2.30;;;;;;;1.25;100.00;101502.69;4842870;29;20491;-76
2022/11/17 09:30:06;;;;;;;3.73;2.77;;;;;;;1.15;99.81;101470.00;4842873;29;20271;-76
2022/11/17 09:32:35;;;;;;;3.27;2.60;;;;;;;1.33;99.60;101505.72;4842946;29;20081;-76
2022/11/17 09:35:05;;;;;;;4.60;2.13;;;;;;;1.35;99.90;101513.53;4827036;29;20263;-76
2022/11/17 09:37:36;;;;;;;5.83;2.10;;;;;;;1.29;100.00;101504.22;4827176;29;20052;-77
2022/11/17 09:40:03;;;;;;;3.30;2.00;;;;;;;1.20;100.00;101504.72;4842959;29;20263;-77
2022/11/17 09:42:29;;;;;;;9.03;6.07;;;;;;;1.22;100.00;101513.38;4843339;29;20331;-76
2022/11/17 09:45:09;;;;;;;3.20;2.03;;;;;;;1.30;100.00;101524.28;4844537;29;20779;-77
2022/11/17 09:47:45;;;;;;;6.90;2.17;;;;;;;1.27;100.00;101497.38;4845533;29;20263;-78
2022/11/17 09:50:29;;;;;;;6.70;2.43;;;;;;;1.42;99.97;101515.72;4848540;29;20264;-76
2022/11/17 09:53:18;;;;;;;7.50;2.50;;;;;;;1.19;98.45;101475.03;4848532;29;20270;-77
2022/11/17 09:55:48;;;;;;;6.73;2.73;;;;;;;1.46;99.22;101525.13;4853135;29;20267;-77
2022/11/17 09:58:39;;;;;;;3.23;1.87;;;;;;;1.42;98.06;101510.47;4852999;29;20714;-76
2022/11/17 10:01:09;;;;;;;5.23;3.07;;;;;;;1.35;97.12;101508.28;4844461;29;20295;-76
2022/11/17 10:03:35;;;;;;;4.63;2.30;;;;;;;1.39;97.25;101525.53;4847259;29;20274;-76
2022/11/17 10:06:10;;;;;;;2.13;1.93;;;;;;;1.38;97.33;101513.34;4848453;29;20274;-76
2022/11/17 10:08:45;;;;;;;4.07;2.77;;;;;;;1.48;96.20;101519.78;4844956;29;20309;-77
2022/11/17 10:11:32;;;;;;;3.43;1.90;;;;;;;1.40;94.06;101507.06;4844217;29;20318;-75
2022/11/17 10:14:06;;;;;;;3.27;1.73;;;;;;;1.50;94.34;101517.94;4842797;29;20339;-76
2022/11/17 10:16:33;;;;;;;2.90;2.00;;;;;;;1.58;94.33;101525.38;4843223;29;20355;-75
2022/11/17 10:19:07;;;;;;;1.73;1.60;;;;;;;1.56;93.55;101514.94;4842065;29;20724;-75
2022/11/17 10:21:33;;;;;;;3.37;1.70;;;;;;;1.33;91.91;101483.88;4841938;29;20295;-76
2022/11/17 10:23:58;;;;;;;3.00;1.73;;;;;;;1.60;91.12;101534.00;4842717;29;20286;-76
2022/11/17 10:26:25;;;;;;;5.17;2.37;;;;;;;1.50;91.58;101524.03;4842724;29;20037;-77
2022/11/17 10:29:10;;;;;;;2.53;1.53;;;;;;;1.34;89.14;101517.91;4842777;29;20053;-75
2022/11/17 10:31:44;;;;;;;1.90;1.60;;;;;;;1.40;91.02;101533.31;4842116;29;20275;-74
2022/11/17 10:34:27;;;;;;;2.00;1.70;;;;;;;1.42;90.43;101525.34;4842142;29;20806;-73
2022/11/17 10:36:53;;;;;;;3.73;2.53;;;;;;;1.36;90.64;101526.56;4840276;29;20263;-76
2022/11/17 10:39:44;;;;;;;4.73;1.40;;;;;;;1.39;89.60;101531.63;4840262;29;20777;-77
2022/11/17 10:42:37;;;;;;;2.27;1.43;;;;;;;1.36;89.09;101529.19;4839131;29;20026;-75
2022/11/17 10:52:55;;;;;;;4.67;2.10;;;;;;;1.11;90.13;101473.72;4840768;29;20286;-76
2022/11/17 10:59:18;;;;;;;2.50;2.00;;;;;;;1.51;87.00;101538.84;4783408;30;20283;-77
2022/11/17 11:02:38;;;;;;;3.38;1.60;;;;;;;1.57;86.35;101544.69;4769512;30;20297;-79
2022/11/17 11:06:18;;;;;;;3.43;1.77;;;;;;;1.57;85.50;101556.03;4775631;30;20511;-76
2022/11/17 11:12:22;;;;;;;2.83;1.63;;;;;;;1.29;88.58;101559.31;4734262;30;20683;-75
2022/11/17 11:14:56;;;;;;;2.47;1.90;;;;;;;0.99;90.49;101545.25;4813279;29;20292;-72
2022/11/17 11:17:21;;;;;;;1.63;1.40;;;;;;;0.93;91.68;101549.88;4826762;29;20263;-75
2022/11/17 11:19:51;;;;;;;1.67;1.57;;;;;;;0.93;91.30;101564.78;4821019;29;20264;-73
2022/11/17 11:22:28;;;;;;;3.00;1.53;;;;;;;0.84;91.30;101560.84;4807733;29;20039;-72
2022/11/17 11:25:00;;;;;;;1.93;1.40;;;;;;;0.91;90.96;101564.00;4808752;29;20347;-71
2022/11/17 11:27:31;;;;;;;1.50;1.40;;;;;;;0.99;90.91;101577.56;4808026;29;20288;-73
2022/11/17 11:30:05;;;;;;;1.83;1.70;;;;;;;1.04;90.85;101577.31;4811822;29;20297;-72
2022/11/17 11:32:43;;;;;;;1.73;1.50;;;;;;;1.06;90.18;101585.94;4811465;29;20276;-78
2022/11/17 11:35:56;;;;;;;3.13;1.30;;;;;;;1.08;89.10;101589.31;4809493;29;20304;-74
2022/11/17 11:38:40;;;;;;;2.33;1.90;;;;;;;0.99;87.36;101579.34;4769765;30;20269;-74
2022/11/17 11:41:31;;;;;;;1.40;1.30;;;;;;;0.84;85.97;101573.94;4769789;30;20388;-75
2022/11/17 11:44:34;;;;;;;1.43;1.10;;;;;;;0.92;85.86;101595.41;4754848;30;20274;-73
2022/11/17 11:47:16;;;;;;;1.53;1.30;;;;;;;0.88;85.74;101588.63;4769775;30;20261;-74
2022/11/17 11:49:49;;;;;;;2.33;1.40;;;;;;;0.81;85.51;101587.22;4789909;29;20269;-76
2022/11/17 11:52:20;;;;;;;2.20;1.37;;;;;;;0.77;85.48;101588.31;4808125;29;20284;-75
2022/11/17 11:54:57;;;;;;;3.20;1.73;;;;;;;0.80;85.30;101606.50;4809039;29;20256;-74
2022/11/17 11:57:29;;;;;;;1.40;1.27;;;;;;;0.78;85.40;101592.63;4810596;29;20292;-76
2022/11/17 12:00:00;;;;;;;2.30;1.90;;;;;;;0.77;85.78;101590.94;4809281;29;20281;-76
2022/11/17 12:02:33;;;;;;;1.60;1.50;;;;;;;0.78;85.54;101608.38;4809037;29;20292;-76
2022/11/17 12:05:18;;;;;;;2.53;1.50;;;;;;;0.73;86.01;101610.38;4809545;29;20273;-75
2022/11/17 12:08:05;;;;;;;2.43;1.70;;;;;;;0.68;86.45;101611.56;4808983;29;20260;-77
2022/11/17 12:10:47;;;;;;;5.33;2.00;;;;;;;0.70;86.35;101625.44;4819760;29;20288;-74
2022/11/17 12:13:15;;;;;;;1.87;1.77;;;;;;;0.67;85.75;101625.59;4826353;29;20283;-75
2022/11/17 12:15:40;;;;;;;2.65;1.88;;;;;;;0.64;86.62;101613.50;4826035;29;20274;-73
2022/11/17 12:18:27;;;;;;;2.20;1.70;;;;;;;0.69;84.57;101626.34;4825946;29;20042;-74
2022/11/17 12:21:03;;;;;;;2.03;1.47;;;;;;;0.63;85.72;101624.06;4825277;29;20042;-74
2022/11/17 12:23:50;;;;;;;2.33;1.63;;;;;;;0.60;84.89;101619.81;4824348;29;20366;-74
2022/11/17 12:26:24;;;;;;;1.67;1.43;;;;;;;0.40;84.14;101602.47;4826172;29;20335;-74
2022/11/17 12:29:19;;;;;;;1.70;1.47;;;;;;;0.55;84.91;101627.03;4825871;29;20316;-75
2022/11/17 12:31:45;;;;;;;2.63;1.30;;;;;;;0.55;85.18;101627.03;4824844;29;20297;-75
2022/11/17 12:34:30;;;;;;;1.93;1.70;;;;;;;0.65;85.39;101638.78;4826003;29;20612;-74
2022/11/17 12:37:11;;;;;;;3.57;1.60;;;;;;;0.59;84.17;101644.34;4825670;29;20291;-74
2022/11/17 12:39:54;;;;;;;2.20;1.57;;;;;;;0.59;83.63;101639.94;4824528;29;20346;-74
2022/11/17 12:42:20;;;;;;;3.00;1.30;;;;;;;0.56;84.25;101639.22;4823948;29;20291;-75
2022/11/17 12:44:46;;;;;;;1.90;1.30;;;;;;;0.53;82.87;101647.25;4825034;29;20283;-75
2022/11/17 12:47:23;;;;;;;2.77;2.10;;;;;;;0.53;84.17;101647.25;4825712;29;20471;-72
2022/11/17 12:50:07;;;;;;;2.70;1.43;;;;;;;0.47;83.09;101643.16;4825448;29;20030;-74
2022/11/17 12:52:38;;;;;;;1.20;1.10;;;;;;;0.47;83.73;101650.16;4825287;29;20271;-74
2022/11/17 12:55:28;;;;;;;1.92;1.42;;;;;;;0.41;83.63;101640.00;4826846;29;20304;-74
2022/11/17 12:58:24;;;;;;;2.93;1.90;;;;;;;0.41;84.90;101659.19;4825425;29;20045;-74
2022/11/17 13:01:05;;;;;;;1.70;1.60;;;;;;;0.39;84.46;101657.56;4823811;29;20387;-73
2022/11/17 13:03:41;;;;;;;3.10;1.10;;;;;;;0.30;82.53;101651.88;4825154;29;20351;-74